Time;durP1;ratioP1;P1;durP2;ratioP2;P2;SDS_P1;SDS_P2;PMS_P1;PMS_P2;Temp;Humidity;BMP_temperature;BMP_pressure;BME280_temperature;BME280_humidity;BME280_pressure;Samples;Min_cycle;Max_cycle;Signal;HPM_P1;HPM_P2
2023/01/15 00:01:37;;;;;;;7.22;1.40;;;6.80;99.90;;;;;;6129460;23;20017;-82
2023/01/15 00:04:18;;;;;;;11.23;2.22;;;7.50;99.90;;;;;;6104844;23;20044;-82
2023/01/15 00:07:03;;;;;;;12.73;1.30;;;7.00;99.90;;;;;;6144009;23;20119;-83
2023/01/15 00:09:51;;;;;;;9.95;1.30;;;6.80;99.90;;;;;;6089820;23;20017;-83
2023/01/15 00:12:40;;;;;;;12.98;1.63;;;6.80;99.90;;;;;;6104186;23;20492;-83
2023/01/15 00:15:45;;;;;;;9.63;2.47;;;6.80;99.90;;;;;;6151601;23;20076;-83
2023/01/15 00:18:41;;;;;;;8.13;1.02;;;6.80;99.90;;;;;;6107918;23;20021;-83
2023/01/15 00:21:26;;;;;;;9.00;1.60;;;7.20;99.90;;;;;;6110638;23;20017;-82
2023/01/15 00:29:33;;;;;;;13.32;1.85;;;6.70;99.90;;;;;;6154581;23;20100;-82
2023/01/15 00:32:04;;;;;;;16.25;1.92;;;6.80;99.90;;;;;;6107935;23;20073;-82
2023/01/15 00:34:37;;;;;;;16.77;1.92;;;6.80;99.90;;;;;;6106026;23;20072;-82
2023/01/15 00:37:14;;;;;;;12.10;2.10;;;6.80;99.90;;;;;;6107013;23;20100;-83
2023/01/15 00:39:47;;;;;;;11.52;1.90;;;6.80;99.90;;;;;;6151601;23;20018;-82
2023/01/15 00:42:15;;;;;;;13.82;1.63;;;6.80;99.90;;;;;;6107742;23;20068;-82
2023/01/15 00:44:45;;;;;;;8.57;1.40;;;6.80;99.90;;;;;;6107693;23;20013;-82
2023/01/15 00:47:14;;;;;;;12.23;1.45;;;6.80;99.90;;;;;;6083027;23;20068;-82
2023/01/15 00:49:45;;;;;;;13.00;1.25;;;6.80;99.90;;;;;;6106935;23;20055;-83
2023/01/15 00:52:24;;;;;;;9.95;1.42;;;6.80;99.90;;;;;;6105994;23;20097;-83
2023/01/15 00:54:58;;;;;;;14.73;2.40;;;6.80;99.90;;;;;;6105901;23;20021;-83
2023/01/15 00:57:28;;;;;;;9.63;1.40;;;6.80;99.90;;;;;;6131643;23;20116;-82
2023/01/15 01:00:03;;;;;;;8.43;1.25;;;6.90;99.90;;;;;;6131121;23;20517;-82
2023/01/15 01:02:31;;;;;;;14.23;1.83;;;6.90;99.90;;;;;;6106651;23;20454;-82
2023/01/15 01:04:57;;;;;;;10.48;1.83;;;6.90;99.90;;;;;;6080956;23;20010;-82
2023/01/15 01:07:23;;;;;;;8.70;1.67;;;6.80;99.90;;;;;;6106537;23;20096;-82
2023/01/15 01:09:48;;;;;;;12.07;2.42;;;6.90;99.90;;;;;;6105745;23;20104;-82
2023/01/15 01:12:16;;;;;;;13.50;2.05;;;6.90;99.90;;;;;;6106774;23;20379;-82
2023/01/15 01:14:49;;;;;;;9.77;1.80;;;6.90;99.90;;;;;;6107802;23;20018;-82
2023/01/15 01:18:06;;;;;;;14.50;1.75;;;6.90;99.90;;;;;;6154967;23;20021;-83
2023/01/15 01:20:38;;;;;;;8.98;1.85;;;6.90;99.90;;;;;;6156688;23;20024;-83
2023/01/15 01:23:07;;;;;;;9.93;1.90;;;6.80;99.90;;;;;;6130483;23;20021;-83
2023/01/15 01:25:39;;;;;;;11.68;1.55;;;6.90;99.90;;;;;;6055489;23;20013;-83
2023/01/15 01:28:13;;;;;;;10.00;1.05;;;7.10;99.90;;;;;;6127036;23;20013;-83
2023/01/15 01:30:48;;;;;;;10.90;1.60;;;6.90;99.90;;;;;;6106820;23;20431;-82
2023/01/15 01:33:39;;;;;;;12.25;1.70;;;6.90;99.90;;;;;;6107987;23;20009;-83
2023/01/15 01:36:19;;;;;;;13.70;1.63;;;6.90;99.90;;;;;;6128451;23;20061;-82
2023/01/15 01:38:53;;;;;;;16.33;1.70;;;6.90;99.90;;;;;;6108734;23;20088;-83
2023/01/15 01:41:47;;;;;;;11.43;1.80;;;7.40;99.90;;;;;;6084349;23;20017;-83
2023/01/15 01:44:34;;;;;;;10.10;1.33;;;6.80;99.90;;;;;;6149100;23;20021;-83
2023/01/15 01:47:22;;;;;;;10.68;1.30;;;6.80;99.90;;;;;;6128792;23;20092;-83
2023/01/15 01:49:59;;;;;;;13.45;1.70;;;6.90;99.90;;;;;;6130529;23;20128;-83
2023/01/15 01:52:59;;;;;;;9.07;2.22;;;6.80;99.90;;;;;;6156511;23;20091;-83
2023/01/15 01:55:28;;;;;;;12.45;2.40;;;6.90;99.90;;;;;;6105743;23;20013;-83
2023/01/15 01:57:58;;;;;;;12.98;1.92;;;6.80;99.90;;;;;;6106271;23;20084;-83
2023/01/15 02:00:47;;;;;;;14.38;1.58;;;6.80;99.90;;;;;;6129630;23;20009;-82
2023/01/15 02:03:14;;;;;;;9.13;1.45;;;6.90;99.90;;;;;;6106049;23;20053;-82
2023/01/15 02:05:49;;;;;;;17.65;2.40;;;6.90;99.90;;;;;;6104456;23;20432;-83
2023/01/15 02:08:23;;;;;;;10.90;1.55;;;6.80;99.90;;;;;;6155895;23;20013;-83
2023/01/15 02:11:15;;;;;;;13.23;2.70;;;6.90;99.90;;;;;;6132756;23;20016;-82
2023/01/15 02:14:20;;;;;;;12.20;1.77;;;6.90;99.90;;;;;;6105891;23;20017;-82
2023/01/15 02:17:11;;;;;;;13.07;2.05;;;6.80;99.90;;;;;;6126255;23;20021;-83
2023/01/15 02:20:15;;;;;;;13.90;2.35;;;6.90;99.90;;;;;;6105470;23;20017;-82
2023/01/15 02:23:04;;;;;;;12.32;1.38;;;6.90;99.90;;;;;;6130374;23;20073;-83
2023/01/15 02:26:23;;;;;;;14.85;2.03;;;6.90;99.90;;;;;;6102642;23;20018;-82
2023/01/15 02:29:12;;;;;;;11.32;1.73;;;6.90;99.90;;;;;;6104915;23;20012;-82
2023/01/15 02:31:49;;;;;;;8.70;2.15;;;6.90;99.90;;;;;;6156784;23;20020;-83
2023/01/15 02:34:36;;;;;;;12.23;1.70;;;6.90;99.90;;;;;;6128099;23;20092;-83
2023/01/15 02:37:35;;;;;;;12.65;1.67;;;6.90;99.90;;;;;;6154209;23;20020;-82
2023/01/15 02:40:33;;;;;;;13.75;1.90;;;6.80;99.90;;;;;;6130697;23;20055;-83
2023/01/15 02:43:24;;;;;;;17.67;1.77;;;6.90;99.90;;;;;;6081624;23;20350;-83
2023/01/15 02:45:53;;;;;;;10.05;1.25;;;6.80;99.90;;;;;;6128658;23;20089;-83
2023/01/15 02:48:26;;;;;;;14.85;1.98;;;6.80;99.90;;;;;;6105444;23;20038;-82
2023/01/15 02:51:01;;;;;;;11.43;1.90;;;6.80;99.90;;;;;;6104564;23;20434;-83
2023/01/15 02:53:28;;;;;;;7.30;1.75;;;6.80;99.90;;;;;;6130477;23;20013;-82
2023/01/15 02:56:22;;;;;;;10.75;2.30;;;6.70;99.90;;;;;;6121805;23;20080;-83
2023/01/15 02:58:55;;;;;;;15.10;2.50;;;6.70;99.90;;;;;;6129714;23;20018;-83
2023/01/15 03:01:45;;;;;;;12.50;1.75;;;6.80;99.90;;;;;;6105173;23;20017;-82
2023/01/15 03:04:39;;;;;;;19.35;2.17;;;6.80;99.90;;;;;;6084035;23;20072;-83
2023/01/15 03:07:12;;;;;;;12.40;2.42;;;6.80;99.90;;;;;;6107913;23;20104;-83
2023/01/15 03:09:53;;;;;;;14.70;1.70;;;7.70;99.90;;;;;;6132081;23;20013;-83
2023/01/15 03:13:02;;;;;;;14.68;2.05;;;6.80;99.90;;;;;;6153032;23;20669;-83
2023/01/15 03:18:32;;;;;;;11.85;1.52;;;6.80;99.90;;;;;;6129645;23;20017;-82
2023/01/15 03:21:31;;;;;;;13.73;1.92;;;7.70;99.90;;;;;;6104930;23;20045;-83
2023/01/15 03:24:49;;;;;;;14.82;2.17;;;6.80;99.90;;;;;;6154190;23;20025;-83
2023/01/15 03:27:44;;;;;;;12.55;2.03;;;6.80;99.90;;;;;;6139077;23;20016;-83
2023/01/15 03:30:24;;;;;;;11.45;2.35;;;6.90;99.90;;;;;;6105267;23;20014;-83
2023/01/15 03:33:38;;;;;;;10.93;2.00;;;6.80;99.90;;;;;;6132913;23;20076;-83
2023/01/15 03:36:04;;;;;;;12.75;1.70;;;6.80;99.90;;;;;;6052495;23;20022;-83
2023/01/15 03:38:34;;;;;;;11.32;1.75;;;6.70;99.90;;;;;;6129816;23;20013;-82
2023/01/15 03:41:14;;;;;;;11.90;1.90;;;7.60;99.90;;;;;;6104652;23;20733;-82
2023/01/15 03:43:49;;;;;;;13.05;2.20;;;6.70;99.90;;;;;;6128669;23;20029;-82
2023/01/15 03:46:54;;;;;;;10.65;1.95;;;6.70;99.90;;;;;;6102783;23;20070;-82
2023/01/15 03:49:44;;;;;;;9.68;1.50;;;6.70;99.90;;;;;;6128848;23;20474;-83
2023/01/15 03:52:24;;;;;;;16.90;2.67;;;6.70;99.90;;;;;;6105627;23;20040;-83
2023/01/15 03:55:15;;;;;;;13.88;1.35;;;6.70;99.90;;;;;;6103247;23;20013;-84
2023/01/15 03:57:57;;;;;;;14.05;2.80;;;6.70;99.90;;;;;;6105320;23;20202;-83
2023/01/15 04:00:29;;;;;;;12.00;2.15;;;6.70;99.90;;;;;;6155058;23;20391;-82
2023/01/15 04:02:56;;;;;;;11.43;1.70;;;6.70;99.90;;;;;;6129941;23;20013;-83
2023/01/15 04:05:24;;;;;;;10.13;1.88;;;6.60;99.90;;;;;;6129004;23;20105;-83
2023/01/15 04:07:51;;;;;;;15.80;1.92;;;6.60;99.90;;;;;;6128433;23;20013;-83
2023/01/15 04:10:17;;;;;;;14.75;2.28;;;6.60;99.90;;;;;;6128795;23;20096;-82
2023/01/15 04:12:43;;;;;;;11.73;1.65;;;6.80;99.90;;;;;;6129915;23;20051;-83
2023/01/15 04:15:10;;;;;;;14.38;1.80;;;6.50;99.90;;;;;;6129885;23;20028;-83
2023/01/15 04:17:36;;;;;;;10.88;1.98;;;6.60;99.90;;;;;;6105877;23;20025;-82
2023/01/15 04:20:04;;;;;;;10.90;1.50;;;6.60;99.90;;;;;;6106169;23;20021;-83
2023/01/15 04:22:30;;;;;;;11.77;1.50;;;6.60;99.90;;;;;;6106916;23;20082;-83
2023/01/15 04:24:56;;;;;;;8.88;1.77;;;6.60;99.90;;;;;;6129698;23;20017;-83
2023/01/15 04:27:23;;;;;;;14.18;2.13;;;6.50;99.90;;;;;;6131788;23;20387;-83
2023/01/15 04:29:52;;;;;;;10.65;1.67;;;6.50;99.90;;;;;;6131624;23;20025;-82
2023/01/15 04:32:24;;;;;;;16.98;1.83;;;6.50;99.90;;;;;;6106128;23;20013;-83
2023/01/15 04:34:58;;;;;;;12.68;1.77;;;6.60;99.90;;;;;;6131477;23;20048;-82
2023/01/15 04:37:24;;;;;;;12.82;1.88;;;6.40;99.90;;;;;;6131420;23;20045;-82
2023/01/15 04:39:49;;;;;;;16.23;1.77;;;6.50;99.90;;;;;;6130331;23;20347;-83
2023/01/15 04:45:07;;;;;;;16.33;2.85;;;6.50;99.90;;;;;;6129927;23;20017;-82
2023/01/15 04:47:34;;;;;;;13.85;2.22;;;7.10;99.90;;;;;;6106363;23;20014;-82
2023/01/15 04:50:12;;;;;;;10.77;2.03;;;6.90;99.90;;;;;;6129255;23;20013;-82
2023/01/15 04:52:41;;;;;;;13.07;2.08;;;6.50;99.90;;;;;;6065264;23;20672;-83
2023/01/15 04:55:09;;;;;;;9.98;2.00;;;6.40;99.90;;;;;;6104277;23;20013;-82
2023/01/15 04:57:38;;;;;;;13.80;2.78;;;6.40;99.90;;;;;;6128540;23;20084;-82
2023/01/15 05:00:05;;;;;;;13.32;2.97;;;7.10;99.90;;;;;;6105634;23;20017;-82
2023/01/15 05:02:30;;;;;;;11.98;1.40;;;6.40;99.90;;;;;;6081701;23;20014;-82
2023/01/15 05:04:56;;;;;;;11.27;1.95;;;6.40;99.90;;;;;;6105281;23;20013;-82
2023/01/15 05:07:21;;;;;;;14.05;2.25;;;6.40;99.90;;;;;;6130532;23;20014;-82
2023/01/15 05:09:52;;;;;;;7.53;1.40;;;6.30;99.90;;;;;;6128841;23;20017;-82
2023/01/15 05:12:18;;;;;;;14.32;1.63;;;6.30;99.90;;;;;;6131337;23;20013;-82
2023/01/15 05:14:44;;;;;;;13.30;1.65;;;6.30;99.90;;;;;;6107012;23;20035;-82
2023/01/15 05:17:10;;;;;;;12.52;1.73;;;6.30;99.90;;;;;;6106111;23;20013;-82
2023/01/15 05:19:35;;;;;;;14.32;1.50;;;6.30;99.90;;;;;;6156721;23;20025;-82
2023/01/15 05:22:01;;;;;;;10.25;1.52;;;6.30;99.90;;;;;;6131685;23;20025;-82
2023/01/15 05:24:26;;;;;;;15.25;2.15;;;6.30;99.90;;;;;;6128277;23;20017;-82
2023/01/15 05:26:52;;;;;;;11.60;2.35;;;6.30;99.90;;;;;;6130035;23;20092;-82
2023/01/15 05:29:18;;;;;;;13.15;1.63;;;6.70;99.90;;;;;;6129250;23;20022;-82
2023/01/15 05:31:44;;;;;;;11.85;1.45;;;6.20;99.90;;;;;;6156244;23;20010;-82
2023/01/15 05:34:10;;;;;;;10.90;1.77;;;6.70;99.90;;;;;;6129447;23;20042;-82
2023/01/15 05:36:36;;;;;;;5.35;1.17;;;6.30;99.90;;;;;;6129649;23;20402;-82
2023/01/15 05:39:02;;;;;;;9.55;1.85;;;6.30;99.90;;;;;;6104151;23;20124;-82
2023/01/15 05:44:15;;;;;;;9.65;1.55;;;6.20;99.90;;;;;;6129451;23;20026;-82
2023/01/15 05:46:42;;;;;;;8.90;1.65;;;6.20;99.90;;;;;;6129955;23;20020;-82
2023/01/15 05:49:14;;;;;;;9.65;1.60;;;7.00;99.90;;;;;;6105243;23;20009;-82
2023/01/15 05:51:40;;;;;;;12.05;2.13;;;6.20;99.90;;;;;;6130090;23;20025;-82
2023/01/15 05:54:08;;;;;;;11.93;2.00;;;6.40;99.90;;;;;;6127985;23;20021;-82
2023/01/15 05:56:35;;;;;;;24.42;3.58;;;6.10;99.90;;;;;;6128427;23;20021;-82
2023/01/15 05:59:01;;;;;;;12.15;1.80;;;6.00;99.90;;;;;;6129506;23;20013;-82
2023/01/15 06:01:26;;;;;;;12.23;2.08;;;6.00;99.90;;;;;;6130436;23;20023;-82
2023/01/15 06:03:54;;;;;;;15.52;2.00;;;6.00;99.90;;;;;;6129742;23;20013;-81
2023/01/15 06:06:19;;;;;;;17.98;2.10;;;6.00;99.90;;;;;;6129178;23;20014;-82
2023/01/15 06:08:45;;;;;;;11.65;1.90;;;6.00;99.90;;;;;;6131327;23;20081;-82
2023/01/15 06:11:11;;;;;;;18.33;1.73;;;5.90;99.90;;;;;;6158032;23;20250;-82
2023/01/15 06:13:40;;;;;;;17.48;2.20;;;5.90;99.90;;;;;;6155824;23;20023;-81
2023/01/15 06:16:07;;;;;;;17.25;1.98;;;5.90;99.90;;;;;;6103297;23;20125;-81
2023/01/15 06:18:34;;;;;;;9.85;1.38;;;5.90;99.90;;;;;;6101554;23;20021;-82
2023/01/15 06:21:08;;;;;;;8.95;2.20;;;5.90;99.90;;;;;;6114255;23;20013;-81
2023/01/15 06:23:35;;;;;;;9.45;1.42;;;5.90;99.90;;;;;;6088855;23;20046;-81
2023/01/15 06:26:03;;;;;;;11.82;1.55;;;5.90;99.90;;;;;;6099920;23;20208;-82
2023/01/15 06:28:28;;;;;;;9.38;1.70;;;5.90;99.90;;;;;;6100604;23;20112;-82
2023/01/15 06:31:48;;;;;;;12.05;1.95;;;5.90;99.90;;;;;;6122332;23;20782;-85
2023/01/15 06:34:13;;;;;;;11.45;1.25;;;6.10;99.90;;;;;;6115454;23;20021;-84
2023/01/15 06:37:35;;;;;;;17.55;2.55;;;5.90;99.90;;;;;;6134286;23;20040;-84
2023/01/15 06:40:43;;;;;;;14.35;1.95;;;5.80;99.90;;;;;;6134754;23;20016;-85
2023/01/15 06:47:19;;;;;;;11.75;1.58;;;5.90;99.90;;;;;;6065546;23;20026;-84
2023/01/15 06:50:24;;;;;;;14.98;1.40;;;5.80;99.90;;;;;;5953548;24;20035;-84
2023/01/15 06:56:46;;;;;;;10.57;2.55;;;5.80;99.90;;;;;;6038749;23;20034;-85
2023/01/15 06:59:11;;;;;;;8.27;1.35;;;5.70;99.90;;;;;;5990012;23;20019;-85
2023/01/15 07:08:40;;;;;;;13.32;2.67;;;5.70;99.90;;;;;;6155322;23;20068;-84
2023/01/15 07:11:08;;;;;;;10.68;2.08;;;5.60;99.90;;;;;;6132891;23;20387;-84
2023/01/15 07:13:34;;;;;;;10.60;2.13;;;5.50;99.90;;;;;;6105991;23;20045;-83
2023/01/15 07:16:01;;;;;;;12.70;2.20;;;5.50;99.90;;;;;;6101507;23;20024;-85
2023/01/15 07:18:34;;;;;;;10.70;1.95;;;5.50;99.90;;;;;;6102472;23;20040;-84
2023/01/15 07:21:00;;;;;;;13.82;2.53;;;5.60;99.90;;;;;;6105983;23;20041;-83
2023/01/15 07:23:26;;;;;;;9.75;1.50;;;5.50;99.90;;;;;;6106364;23;20037;-84
2023/01/15 07:25:53;;;;;;;11.48;1.60;;;5.60;99.90;;;;;;6127798;23;20096;-82
2023/01/15 07:28:21;;;;;;;10.57;1.67;;;5.60;99.90;;;;;;6103323;23;20048;-86
2023/01/15 07:30:47;;;;;;;9.52;1.25;;;5.50;99.90;;;;;;6098631;23;20021;-82
2023/01/15 07:33:12;;;;;;;11.05;1.33;;;5.50;99.90;;;;;;6099440;23;20033;-83
2023/01/15 07:35:38;;;;;;;9.82;2.13;;;5.60;99.90;;;;;;6102348;23;20020;-82
2023/01/15 07:38:03;;;;;;;12.50;1.83;;;5.70;99.90;;;;;;6098516;23;20021;-82
2023/01/15 07:40:30;;;;;;;9.02;1.33;;;5.70;99.90;;;;;;6098634;23;20077;-84
2023/01/15 07:49:44;;;;;;;9.18;1.90;;;5.70;99.90;;;;;;6132419;23;20044;-81
2023/01/15 07:52:29;;;;;;;9.10;1.60;;;5.50;99.90;;;;;;6034795;23;20026;-84
2023/01/15 07:54:54;;;;;;;7.82;0.77;;;5.60;99.90;;;;;;6100746;23;20061;-83
2023/01/15 07:57:21;;;;;;;10.65;1.30;;;5.70;99.90;;;;;;6104532;23;20017;-83
2023/01/15 07:59:48;;;;;;;12.27;1.83;;;5.60;99.90;;;;;;6127973;23;20017;-82
2023/01/15 08:02:13;;;;;;;8.05;1.35;;;5.00;99.90;;;;;;6128412;23;20017;-82
2023/01/15 08:04:39;;;;;;;6.85;1.23;;;5.60;99.90;;;;;;6105392;23;20065;-82
2023/01/15 08:07:05;;;;;;;9.43;1.60;;;5.50;99.90;;;;;;6101599;23;20663;-82
2023/01/15 08:09:31;;;;;;;15.65;1.75;;;5.50;99.90;;;;;;6102857;23;20679;-82
2023/01/15 08:17:32;;;;;;;6.82;1.17;;;5.50;99.90;;;;;;6124652;23;20070;-82
2023/01/15 08:19:58;;;;;;;8.05;1.35;;;5.60;99.90;;;;;;6098359;23;20025;-83
2023/01/15 08:22:24;;;;;;;4.85;0.90;;;5.60;99.90;;;;;;6098500;23;20786;-82
2023/01/15 08:24:49;;;;;;;10.13;1.42;;;5.60;99.90;;;;;;6121796;23;20017;-83
2023/01/15 08:27:15;;;;;;;9.25;1.58;;;5.60;99.90;;;;;;6097554;23;20021;-83
2023/01/15 08:29:40;;;;;;;12.95;1.30;;;5.70;99.90;;;;;;6098099;23;20020;-81
2023/01/15 08:32:06;;;;;;;7.72;1.17;;;5.70;99.90;;;;;;6099118;23;20013;-81
2023/01/15 08:34:32;;;;;;;6.97;0.95;;;5.80;99.90;;;;;;6099696;23;20082;-83
2023/01/15 08:36:58;;;;;;;10.57;0.98;;;5.80;99.90;;;;;;6096864;23;20538;-81
2023/01/15 08:39:28;;;;;;;7.15;1.23;;;5.90;99.90;;;;;;6093799;23;20108;-81
2023/01/15 08:41:55;;;;;;;6.43;1.30;;;6.00;99.90;;;;;;6121629;23;20739;-85
2023/01/15 08:44:22;;;;;;;12.50;1.88;;;6.00;99.90;;;;;;6125998;23;20072;-81
2023/01/15 08:46:48;;;;;;;4.07;0.88;;;6.10;99.90;;;;;;6123732;23;20013;-83
2023/01/15 08:49:14;;;;;;;8.93;1.00;;;6.10;99.90;;;;;;6097827;23;20100;-80
2023/01/15 08:51:42;;;;;;;10.98;2.78;;;6.20;99.90;;;;;;6094871;23;20351;-82
2023/01/15 08:54:12;;;;;;;10.55;2.42;;;6.10;99.90;;;;;;6115164;23;20056;-79
2023/01/15 08:56:37;;;;;;;15.20;2.33;;;6.10;99.90;;;;;;6114501;23;20056;-79
2023/01/15 08:59:05;;;;;;;14.70;3.08;;;6.00;99.90;;;;;;6113907;23;20458;-79
2023/01/15 09:01:30;;;;;;;10.05;1.77;;;5.90;99.90;;;;;;6115154;23;20017;-79
2023/01/15 09:03:57;;;;;;;10.55;1.20;;;5.80;99.90;;;;;;6116246;23;20029;-79
2023/01/15 09:06:23;;;;;;;8.30;1.02;;;5.80;99.90;;;;;;6114900;23;20013;-80
2023/01/15 09:08:48;;;;;;;7.57;1.35;;;5.80;99.90;;;;;;6093568;23;20021;-82
2023/01/15 09:11:14;;;;;;;7.45;1.42;;;5.70;99.90;;;;;;6116141;23;20018;-82
2023/01/15 09:13:40;;;;;;;7.63;1.10;;;5.60;99.90;;;;;;6116878;23;20371;-83
2023/01/15 09:16:08;;;;;;;10.75;1.10;;;5.50;99.90;;;;;;6093988;23;20024;-81
2023/01/15 09:18:38;;;;;;;6.70;1.48;;;5.30;99.90;;;;;;6098671;23;20028;-81
2023/01/15 09:21:05;;;;;;;7.05;0.82;;;5.20;99.90;;;;;;6118896;23;20013;-81
2023/01/15 09:23:31;;;;;;;6.78;0.68;;;5.20;99.90;;;;;;6121989;23;20017;-81
2023/01/15 09:26:04;;;;;;;4.68;1.25;;;5.10;99.90;;;;;;6114814;23;20009;-80
2023/01/15 09:28:31;;;;;;;6.97;0.95;;;5.00;99.90;;;;;;6089993;23;20351;-80
2023/01/15 09:30:56;;;;;;;5.72;0.80;;;5.10;99.90;;;;;;6116773;23;20017;-79
2023/01/15 09:33:22;;;;;;;7.45;1.55;;;5.00;99.90;;;;;;6098551;23;20014;-80
2023/01/15 09:35:48;;;;;;;10.95;0.73;;;5.00;99.90;;;;;;6120979;23;20025;-80
2023/01/15 09:38:16;;;;;;;8.88;1.17;;;5.00;99.90;;;;;;6122611;23;20021;-80
2023/01/15 09:40:56;;;;;;;6.68;0.82;;;5.10;99.90;;;;;;6097290;23;20045;-79
2023/01/15 09:43:40;;;;;;;6.07;1.65;;;5.10;99.90;;;;;;6096640;23;20719;-79
2023/01/15 09:46:19;;;;;;;8.00;1.38;;;5.20;99.90;;;;;;6120080;23;20026;-79
2023/01/15 09:49:13;;;;;;;10.40;1.00;;;5.30;99.90;;;;;;6121280;23;20018;-80
2023/01/15 09:51:55;;;;;;;10.15;1.25;;;5.30;99.90;;;;;;6121929;23;20144;-79
2023/01/15 09:54:32;;;;;;;11.23;0.90;;;5.40;99.90;;;;;;6120799;23;20096;-79
2023/01/15 09:56:58;;;;;;;8.27;1.15;;;5.40;99.90;;;;;;6095557;23;20029;-79
2023/01/15 09:59:39;;;;;;;8.65;1.85;;;5.40;99.90;;;;;;6119936;23;20025;-80
2023/01/15 10:02:24;;;;;;;10.30;1.33;;;5.50;99.90;;;;;;6116339;23;20718;-80
2023/01/15 10:04:56;;;;;;;12.27;1.83;;;5.50;99.90;;;;;;6089351;23;20018;-80
2023/01/15 10:07:37;;;;;;;13.90;2.10;;;5.50;99.90;;;;;;6115158;23;20068;-79
2023/01/15 10:10:09;;;;;;;9.10;2.42;;;5.40;99.90;;;;;;6115347;23;20013;-80
2023/01/15 10:12:41;;;;;;;13.35;1.92;;;5.40;99.90;;;;;;6114885;23;20017;-79
2023/01/15 10:15:22;;;;;;;9.68;1.10;;;5.50;99.90;;;;;;6114340;23;20546;-82
2023/01/15 10:17:54;;;;;;;11.45;1.42;;;5.60;99.90;;;;;;6116359;23;20020;-82
2023/01/15 10:20:43;;;;;;;10.07;1.27;;;5.70;99.90;;;;;;6093921;23;20640;-79
2023/01/15 10:23:27;;;;;;;10.43;1.42;;;5.90;99.90;;;;;;6114050;23;20451;-78
2023/01/15 10:26:25;;;;;;;12.25;1.42;;;5.50;99.90;;;;;;6111405;23;20017;-79
2023/01/15 10:28:57;;;;;;;10.90;1.30;;;5.80;99.90;;;;;;6112927;23;20484;-79
2023/01/15 10:31:44;;;;;;;10.35;1.30;;;5.80;99.90;;;;;;6112878;23;20017;-79
2023/01/15 10:34:32;;;;;;;15.90;3.00;;;5.70;99.90;;;;;;6111097;23;20120;-80
2023/01/15 10:37:11;;;;;;;7.45;1.75;;;5.50;99.90;;;;;;6112849;23;20077;-83
2023/01/15 10:39:45;;;;;;;11.25;1.83;;;5.40;99.90;;;;;;6115413;23;20737;-81
2023/01/15 10:42:30;;;;;;;10.45;1.67;;;5.40;99.90;;;;;;6115136;23;20017;-81
2023/01/15 10:45:01;;;;;;;17.05;2.60;;;5.40;99.90;;;;;;6112497;23;20060;-79
2023/01/15 10:47:35;;;;;;;10.13;1.60;;;5.50;99.90;;;;;;6112643;23;20013;-79
2023/01/15 10:50:08;;;;;;;12.63;2.00;;;5.50;99.90;;;;;;6113969;23;20044;-79
2023/01/15 10:52:37;;;;;;;9.57;2.03;;;5.50;99.90;;;;;;6092477;23;20017;-84
2023/01/15 10:55:18;;;;;;;8.57;0.90;;;5.60;99.90;;;;;;6089316;23;20522;-86
2023/01/15 10:58:08;;;;;;;11.52;2.28;;;5.60;99.90;;;;;;6117894;23;20017;-81
2023/01/15 11:00:35;;;;;;;10.93;1.58;;;5.70;99.90;;;;;;6089856;23;20016;-81
2023/01/15 11:03:10;;;;;;;16.10;1.95;;;5.90;99.90;;;;;;6089112;23;20121;-80
2023/01/15 11:05:37;;;;;;;14.32;2.10;;;6.10;99.90;;;;;;6114379;23;20037;-80
2023/01/15 11:08:10;;;;;;;10.55;1.38;;;6.10;99.90;;;;;;6091511;23;20103;-80
2023/01/15 11:10:37;;;;;;;11.57;1.55;;;6.20;99.90;;;;;;6113724;23;20021;-80
2023/01/15 11:21:29;;;;;;;12.75;1.50;;;6.40;99.90;;;;;;6113642;23;20072;-80
2023/01/15 11:23:56;;;;;;;8.18;2.30;;;6.60;99.90;;;;;;6112681;23;20079;-80
2023/01/15 11:26:28;;;;;;;10.75;1.45;;;6.80;99.90;;;;;;6112379;23;20017;-81
2023/01/15 11:28:54;;;;;;;12.02;2.08;;;6.90;99.90;;;;;;6113258;23;20017;-82
2023/01/15 11:31:20;;;;;;;13.10;1.75;;;6.90;99.90;;;;;;6116425;23;20076;-83
2023/01/15 11:34:00;;;;;;;10.38;1.75;;;7.20;99.90;;;;;;6115327;23;20022;-84
2023/01/15 11:36:27;;;;;;;9.07;1.50;;;7.50;99.90;;;;;;6114394;23;20417;-84
2023/01/15 11:38:53;;;;;;;15.13;2.83;;;7.60;99.90;;;;;;6090244;23;20017;-82
2023/01/15 11:52:49;;;;;;;12.93;1.42;;;7.10;99.90;;;;;;6116242;23;20091;-80
2023/01/15 11:55:19;;;;;;;6.07;1.42;;;7.00;99.90;;;;;;6111042;23;20025;-81
2023/01/15 11:57:45;;;;;;;12.88;1.75;;;7.10;99.90;;;;;;6115196;23;20017;-80
2023/01/15 12:00:22;;;;;;;11.38;1.33;;;7.10;99.90;;;;;;6091606;23;20025;-81
2023/01/15 12:02:51;;;;;;;9.80;1.58;;;7.00;99.90;;;;;;6094093;23;20022;-80
2023/01/15 12:05:29;;;;;;;10.88;1.75;;;7.00;99.90;;;;;;6090922;23;20017;-81
2023/01/15 12:08:00;;;;;;;12.02;1.48;;;7.10;99.90;;;;;;6092929;23;20021;-80
2023/01/15 12:13:22;;;;;;;11.52;1.85;;;7.20;99.90;;;;;;6114457;23;20021;-85
2023/01/15 12:15:54;;;;;;;12.95;2.55;;;7.20;99.90;;;;;;6116470;23;20048;-80
2023/01/15 12:18:57;;;;;;;8.52;1.60;;;7.10;99.90;;;;;;6092108;23;20560;-81
2023/01/15 12:21:45;;;;;;;9.02;1.40;;;7.20;99.90;;;;;;6117115;23;20342;-81
2023/01/15 12:24:33;;;;;;;12.13;2.13;;;7.20;99.90;;;;;;6091470;23;20443;-80
2023/01/15 12:27:17;;;;;;;15.05;2.38;;;7.10;99.90;;;;;;6091621;23;20080;-81
2023/01/15 12:29:49;;;;;;;9.00;1.63;;;7.20;99.90;;;;;;6094035;23;20088;-81
2023/01/15 12:32:20;;;;;;;6.70;1.92;;;7.20;99.90;;;;;;6117942;23;20020;-81
2023/01/15 12:35:01;;;;;;;7.68;1.90;;;7.20;99.90;;;;;;6117938;23;20267;-81
2023/01/15 12:37:35;;;;;;;10.55;1.58;;;7.30;99.90;;;;;;6115987;23;20320;-80
2023/01/15 12:40:13;;;;;;;12.45;1.55;;;7.40;99.90;;;;;;6116144;23;20021;-81
2023/01/15 12:45:32;;;;;;;12.48;2.63;;;7.70;99.90;;;;;;6116243;23;20069;-81
2023/01/15 12:48:35;;;;;;;12.90;1.95;;;7.80;99.90;;;;;;6092399;23;20013;-80
2023/01/15 12:51:03;;;;;;;10.98;2.38;;;7.80;99.90;;;;;;6119288;23;20025;-81
2023/01/15 12:53:41;;;;;;;16.20;2.08;;;7.80;99.90;;;;;;6088749;23;20044;-82
2023/01/15 12:56:12;;;;;;;13.25;2.47;;;7.90;99.90;;;;;;6116126;23;20021;-81
2023/01/15 12:58:47;;;;;;;11.95;2.65;;;7.90;99.90;;;;;;6116107;23;20014;-81
2023/01/15 13:01:43;;;;;;;11.20;2.53;;;7.80;99.90;;;;;;6115629;23;20021;-82
2023/01/15 13:04:31;;;;;;;11.82;1.60;;;7.70;99.90;;;;;;6095874;23;20025;-82
2023/01/15 13:07:32;;;;;;;12.20;2.63;;;7.70;99.90;;;;;;6088021;23;20811;-82
2023/01/15 13:10:07;;;;;;;8.75;1.55;;;7.70;99.90;;;;;;6105112;23;20113;-81
2023/01/15 13:12:33;;;;;;;12.95;2.00;;;7.60;99.90;;;;;;6092119;23;20017;-81
2023/01/15 13:15:00;;;;;;;13.82;2.28;;;7.60;99.90;;;;;;6111507;23;20022;-82
2023/01/15 13:17:30;;;;;;;9.20;1.83;;;7.60;99.90;;;;;;6115516;23;20772;-81
2023/01/15 13:20:08;;;;;;;10.00;1.75;;;7.70;99.90;;;;;;6091400;23;20124;-81
2023/01/15 13:22:49;;;;;;;18.13;2.53;;;7.70;99.90;;;;;;6115523;23;20021;-81
2023/01/15 13:25:40;;;;;;;12.02;1.90;;;7.80;99.90;;;;;;6113639;23;20018;-81
2023/01/15 13:28:31;;;;;;;14.15;2.17;;;7.80;99.90;;;;;;6116261;23;20060;-81
2023/01/15 13:31:29;;;;;;;15.05;2.05;;;7.70;99.90;;;;;;6114215;23;20081;-81
2023/01/15 13:33:59;;;;;;;15.15;3.20;;;7.70;99.90;;;;;;6110429;23;20096;-80
2023/01/15 13:36:42;;;;;;;14.15;2.95;;;7.60;99.90;;;;;;6114120;23;20048;-81
2023/01/15 13:39:17;;;;;;;13.75;2.38;;;7.50;99.90;;;;;;6090439;23;20027;-80
2023/01/15 13:44:38;;;;;;;11.35;2.05;;;7.30;99.90;;;;;;6118165;23;20097;-81
2023/01/15 13:47:13;;;;;;;12.90;1.67;;;7.20;99.90;;;;;;6111162;23;20093;-79
2023/01/15 13:49:49;;;;;;;9.68;1.20;;;7.00;99.90;;;;;;6139577;23;20018;-80
2023/01/15 13:52:28;;;;;;;12.00;1.70;;;6.80;99.90;;;;;;6124066;23;20024;-81
2023/01/15 13:55:00;;;;;;;9.10;1.08;;;6.50;99.90;;;;;;6123786;23;20789;-79
2023/01/15 13:57:33;;;;;;;12.68;1.27;;;6.40;99.90;;;;;;6126519;23;20025;-82
2023/01/15 13:59:59;;;;;;;5.53;0.93;;;6.30;99.90;;;;;;6143718;23;20017;-81
2023/01/15 14:02:26;;;;;;;4.13;0.75;;;6.20;99.90;;;;;;6110034;23;20040;-81
2023/01/15 14:04:52;;;;;;;4.32;0.50;;;6.10;99.90;;;;;;6143334;23;20021;-80
2023/01/15 14:07:32;;;;;;;5.75;0.50;;;6.00;99.90;;;;;;6141910;23;20096;-81
2023/01/15 14:10:16;;;;;;;1.80;0.22;;;6.00;99.90;;;;;;6117414;23;20024;-81
2023/01/15 14:12:48;;;;;;;2.78;0.35;;;5.90;99.90;;;;;;6142910;23;20017;-80
2023/01/15 14:15:25;;;;;;;6.47;0.60;;;5.80;99.90;;;;;;6141169;23;20549;-80
2023/01/15 14:17:56;;;;;;;3.00;0.50;;;5.80;99.90;;;;;;6142416;23;20025;-80
2023/01/15 14:20:49;;;;;;;3.50;0.68;;;5.80;99.90;;;;;;6141393;23;20049;-80
2023/01/15 14:23:37;;;;;;;3.45;0.30;;;5.90;99.90;;;;;;6142797;23;20017;-80
2023/01/15 14:26:11;;;;;;;3.47;0.68;;;5.80;99.90;;;;;;6142064;23;20014;-81
2023/01/15 14:28:55;;;;;;;3.92;0.63;;;5.80;99.90;;;;;;6117542;23;20816;-81
2023/01/15 14:31:32;;;;;;;5.50;0.65;;;5.90;99.90;;;;;;6142070;23;20013;-80
2023/01/15 14:34:11;;;;;;;7.72;0.82;;;5.80;99.90;;;;;;6117898;23;20076;-81
2023/01/15 14:36:50;;;;;;;6.38;0.65;;;5.90;99.90;;;;;;6141704;23;20017;-79
2023/01/15 14:39:30;;;;;;;4.55;0.47;;;5.90;99.90;;;;;;6139929;23;20027;-79
2023/01/15 14:44:56;;;;;;;6.65;0.65;;;5.90;99.90;;;;;;6140071;23;20033;-80